Time;durP1;ratioP1;P1;durP2;ratioP2;P2;SDS_P1;SDS_P2;PMS_P1;PMS_P2;Temp;Humidity;BMP_temperature;BMP_pressure;BME280_temperature;BME280_humidity;BME280_pressure;Samples;Min_cycle;Max_cycle;Signal;HPM_P1;HPM_P2
2023/07/14 00:00:36;;;;;;;7.25;5.03;;;;;;;15.17;77.63;98849.97;5072678;28;20033;-55
2023/07/14 00:03:04;;;;;;;6.95;5.00;;;;;;;15.12;77.53;98834.34;5073060;28;20033;-51
2023/07/14 00:05:33;;;;;;;9.45;5.05;;;;;;;15.18;77.36;98840.88;5073213;28;20905;-52
2023/07/14 00:07:59;;;;;;;7.30;4.70;;;;;;;15.16;77.50;98842.91;5072625;28;20119;-52
2023/07/14 00:10:30;;;;;;;8.32;5.63;;;;;;;15.16;77.61;98837.50;5072659;28;20063;-53
2023/07/14 00:13:07;;;;;;;6.85;4.82;;;;;;;15.23;77.43;98833.09;5072709;28;20111;-49
2023/07/14 00:15:36;;;;;;;6.88;4.68;;;;;;;15.21;77.10;98827.06;5073461;28;20473;-55
2023/07/14 00:18:18;;;;;;;8.30;4.60;;;;;;;15.27;77.24;98834.41;5072463;28;20444;-54
2023/07/14 00:20:44;;;;;;;9.15;4.93;;;;;;;15.18;77.14;98832.78;5052593;28;20356;-50
2023/07/14 00:23:11;;;;;;;7.07;5.18;;;;;;;14.98;77.32;98798.22;5052454;28;20104;-54
2023/07/14 00:25:38;;;;;;;8.23;5.13;;;;;;;15.12;77.05;98822.72;5052513;28;20037;-51
2023/07/14 00:28:09;;;;;;;5.80;4.85;;;;;;;15.16;76.95;98841.06;5089210;28;20089;-51
2023/07/14 00:30:36;;;;;;;6.72;4.50;;;;;;;14.99;77.25;98807.13;5092502;28;20122;-53
2023/07/14 00:33:12;;;;;;;7.95;4.63;;;;;;;15.15;77.10;98839.38;5083145;28;20448;-54
2023/07/14 00:35:38;;;;;;;7.57;4.88;;;;;;;15.12;77.21;98833.50;5072606;28;20035;-55
2023/07/14 00:38:03;;;;;;;4.97;4.38;;;;;;;15.10;77.07;98833.69;5072618;28;20115;-50
2023/07/14 00:40:45;;;;;;;8.27;4.57;;;;;;;15.21;77.51;98840.53;5072251;28;20024;-54
2023/07/14 00:43:13;;;;;;;8.07;4.28;;;;;;;15.09;77.26;98828.47;5072279;28;20411;-52
2023/07/14 00:45:38;;;;;;;6.50;4.20;;;;;;;15.07;77.39;98845.66;5072671;28;20039;-53
2023/07/14 00:48:05;;;;;;;5.72;4.47;;;;;;;15.06;77.11;98843.97;5073507;28;20036;-55
2023/07/14 00:50:37;;;;;;;5.25;3.97;;;;;;;15.15;76.88;98860.09;5076057;28;20092;-56
2023/07/14 00:53:09;;;;;;;5.63;3.75;;;;;;;15.04;76.60;98848.72;5092319;28;20028;-49
2023/07/14 00:55:41;;;;;;;5.35;3.45;;;;;;;15.13;76.66;98854.03;5092434;28;20024;-52
2023/07/14 00:58:17;;;;;;;4.07;3.33;;;;;;;15.12;76.18;98855.06;5092889;28;20079;-52
2023/07/14 01:01:13;;;;;;;5.55;3.78;;;;;;;15.23;76.27;98859.22;5092233;28;20047;-62
2023/07/14 01:03:43;;;;;;;4.30;3.35;;;;;;;15.17;76.04;98858.91;5092392;28;20044;-53
2023/07/14 01:06:17;;;;;;;5.53;3.65;;;;;;;15.14;75.94;98855.72;5092312;28;20138;-53
2023/07/14 01:08:59;;;;;;;4.32;3.92;;;;;;;15.21;75.84;98854.00;5090708;28;20059;-58
2023/07/14 01:11:31;;;;;;;7.82;3.80;;;;;;;15.14;76.12;98859.28;5091915;28;20046;-55
2023/07/14 01:14:00;;;;;;;6.03;3.80;;;;;;;15.14;75.77;98864.66;5091955;28;20028;-51
2023/07/14 01:16:29;;;;;;;4.95;4.00;;;;;;;15.14;76.14;98869.19;5078532;28;20119;-52
2023/07/14 01:18:56;;;;;;;5.15;3.45;;;;;;;15.14;75.80;98870.06;5076153;28;20039;-53
2023/07/14 01:21:21;;;;;;;3.95;3.35;;;;;;;15.17;75.25;98866.16;5075462;28;20459;-49
2023/07/14 01:24:08;;;;;;;4.43;3.60;;;;;;;15.22;75.60;98871.88;5075290;28;20040;-50
2023/07/14 01:26:57;;;;;;;3.20;2.90;;;;;;;15.33;75.63;98865.25;5076696;28;20047;-53
2023/07/14 01:29:23;;;;;;;9.73;5.45;;;;;;;15.17;75.45;98858.06;5093971;28;20056;-51
2023/07/14 01:31:49;;;;;;;6.85;5.80;;;;;;;15.24;75.61;98866.28;5095718;28;20092;-56
2023/07/14 01:34:15;;;;;;;17.13;12.20;;;;;;;15.23;75.73;98867.31;5095677;28;20030;-64
2023/07/14 01:36:43;;;;;;;7.55;5.72;;;;;;;15.27;75.99;98869.47;5095823;28;20097;-53
2023/07/14 01:39:09;;;;;;;6.85;5.60;;;;;;;15.27;75.81;98860.53;5090769;28;20029;-53
2023/07/14 01:41:35;;;;;;;5.15;4.03;;;;;;;15.31;75.79;98868.09;5075137;28;20025;-51
2023/07/14 01:44:04;;;;;;;8.35;4.43;;;;;;;15.34;75.67;98870.44;5057600;28;20043;-52
2023/07/14 01:46:30;;;;;;;6.25;3.90;;;;;;;15.34;75.63;98870.44;5076257;28;20067;-54
2023/07/14 01:48:56;;;;;;;6.25;3.38;;;;;;;15.31;75.33;98868.09;5075069;28;20051;-54
2023/07/14 01:51:24;;;;;;;6.75;3.80;;;;;;;15.30;75.33;98885.28;5075348;28;20149;-53
2023/07/14 01:54:22;;;;;;;6.50;3.80;;;;;;;15.45;75.45;98885.38;5074753;28;20025;-52
2023/07/14 01:56:49;;;;;;;5.13;3.72;;;;;;;15.34;74.86;98881.22;5074591;28;20117;-54
2023/07/14 01:59:19;;;;;;;5.05;3.92;;;;;;;15.35;75.46;98891.00;5076448;28;20020;-52
2023/07/14 02:01:46;;;;;;;5.80;3.67;;;;;;;15.15;75.20;98854.72;5086233;28;20420;-53
2023/07/14 02:04:20;;;;;;;8.02;4.10;;;;;;;15.46;75.49;98884.34;5093393;28;20047;-54
2023/07/14 02:06:45;;;;;;;5.28;3.80;;;;;;;15.40;75.52;98881.53;5093627;28;20048;-52
2023/07/14 02:09:17;;;;;;;4.22;3.80;;;;;;;15.19;75.59;98839.84;5095163;28;20081;-53
2023/07/14 02:11:47;;;;;;;4.80;3.47;;;;;;;15.42;75.65;98892.97;5095089;28;20028;-56
2023/07/14 02:14:17;;;;;;;5.25;3.50;;;;;;;15.45;75.74;98893.47;5093798;28;20081;-51
2023/07/14 02:16:48;;;;;;;9.68;6.72;;;;;;;15.43;75.81;98883.84;5093365;28;20025;-55
2023/07/14 02:19:21;;;;;;;8.48;6.05;;;;;;;15.48;75.50;98894.97;5095103;28;20093;-54
2023/07/14 02:21:48;;;;;;;6.45;4.45;;;;;;;15.44;75.81;98901.75;5095090;28;20075;-50
2023/07/14 02:24:20;;;;;;;6.18;4.15;;;;;;;15.47;75.86;98906.78;5095300;28;20032;-49
2023/07/14 02:27:02;;;;;;;8.45;3.90;;;;;;;15.52;75.86;98908.91;5092125;28;20090;-55
2023/07/14 02:29:29;;;;;;;5.00;3.67;;;;;;;15.40;75.58;98905.78;5094582;28;20375;-59
2023/07/14 02:32:17;;;;;;;4.45;3.90;;;;;;;15.42;75.44;98911.84;5095071;28;20028;-52
2023/07/14 02:34:51;;;;;;;6.03;4.00;;;;;;;15.43;75.54;98919.78;5091519;28;20452;-51
2023/07/14 02:37:42;;;;;;;6.10;3.72;;;;;;;15.50;75.75;98922.59;5074616;28;20037;-53
2023/07/14 02:40:11;;;;;;;5.53;3.72;;;;;;;15.38;76.20;98921.31;5073427;28;20887;-53
2023/07/14 02:42:38;;;;;;;5.00;3.80;;;;;;;15.15;75.88;98900.53;5074529;28;20024;-54
2023/07/14 02:45:05;;;;;;;6.85;4.20;;;;;;;15.29;76.61;98929.47;5074239;28;20032;-53
2023/07/14 02:47:34;;;;;;;4.97;3.83;;;;;;;15.18;76.35;98908.28;5073970;28;20032;-49
2023/07/14 02:50:00;;;;;;;8.45;4.60;;;;;;;15.28;76.25;98935.88;5079202;28;20016;-53
2023/07/14 02:52:25;;;;;;;5.03;4.07;;;;;;;15.25;76.30;98924.59;5094506;28;20096;-51
2023/07/14 02:54:51;;;;;;;5.57;4.40;;;;;;;15.24;76.96;98923.78;5075853;28;20031;-53
2023/07/14 02:57:16;;;;;;;8.45;4.50;;;;;;;15.20;76.72;98930.53;5074139;28;20108;-54
2023/07/14 02:59:41;;;;;;;6.95;4.18;;;;;;;15.14;76.90;98934.75;5073660;28;20032;-53
2023/07/14 03:02:07;;;;;;;6.68;4.60;;;;;;;15.15;77.41;98940.97;5074263;28;20170;-52
2023/07/14 03:04:34;;;;;;;6.07;4.20;;;;;;;15.12;77.42;98936.78;5073835;28;20043;-47
2023/07/14 03:07:00;;;;;;;6.07;4.15;;;;;;;15.13;77.50;98943.00;5073548;28;20133;-54
2023/07/14 03:09:26;;;;;;;5.25;4.15;;;;;;;15.14;77.33;98947.38;5085579;28;20032;-54
2023/07/14 03:11:52;;;;;;;4.95;4.38;;;;;;;15.17;77.49;98952.44;5085706;28;20036;-54
2023/07/14 03:14:17;;;;;;;6.55;4.22;;;;;;;15.19;77.12;98955.78;5080385;28;20466;-54
2023/07/14 03:16:43;;;;;;;5.55;4.28;;;;;;;15.19;77.17;98959.34;5093641;28;20032;-54
2023/07/14 03:19:09;;;;;;;6.90;4.68;;;;;;;15.20;77.38;98949.41;5093550;28;20440;-54
2023/07/14 03:21:34;;;;;;;10.35;5.13;;;;;;;15.06;77.20;98932.94;5092923;28;20028;-52
2023/07/14 03:24:00;;;;;;;6.20;5.53;;;;;;;15.16;77.60;98938.13;5093759;28;20467;-50
2023/07/14 03:26:25;;;;;;;10.48;6.53;;;;;;;15.36;77.47;98960.09;5093081;28;20032;-50
2023/07/14 03:28:51;;;;;;;5.15;4.65;;;;;;;15.41;76.74;98956.88;5093438;28;20028;-64
2023/07/14 03:31:16;;;;;;;8.35;4.70;;;;;;;15.43;76.66;98953.97;5089266;28;20051;-50
2023/07/14 03:33:43;;;;;;;5.13;4.68;;;;;;;15.46;76.56;98956.34;5073045;28;20040;-51
2023/07/14 03:36:12;;;;;;;5.57;4.47;;;;;;;15.48;76.52;98965.09;5072695;28;20089;-56
2023/07/14 03:38:40;;;;;;;9.07;5.93;;;;;;;15.48;76.79;98973.19;5079458;28;20452;-53
2023/07/14 03:41:05;;;;;;;9.75;5.80;;;;;;;15.53;76.18;98964.56;5093247;28;20454;-54
2023/07/14 03:43:31;;;;;;;5.20;4.70;;;;;;;15.57;76.48;98971.31;5092945;28;20060;-56
2023/07/14 03:45:57;;;;;;;6.43;4.70;;;;;;;15.59;76.03;98970.09;5093187;28;20027;-50
2023/07/14 03:48:23;;;;;;;5.70;4.55;;;;;;;15.59;75.69;98974.66;5092026;28;20185;-54
2023/07/14 03:50:49;;;;;;;6.50;5.43;;;;;;;15.54;76.18;98961.69;5092204;28;20085;-54
2023/07/14 03:53:14;;;;;;;5.55;4.50;;;;;;;15.62;76.08;98958.13;5085872;28;20529;-50
2023/07/14 03:55:40;;;;;;;5.78;4.93;;;;;;;15.64;76.39;98967.69;5072761;28;20077;-56
2023/07/14 03:58:06;;;;;;;5.68;4.13;;;;;;;15.62;75.52;98968.91;5072654;28;20437;-53
2023/07/14 04:00:32;;;;;;;4.53;3.97;;;;;;;15.51;75.66;98967.44;5072863;28;20364;-53
2023/07/14 04:02:58;;;;;;;5.28;3.95;;;;;;;15.53;76.17;98975.34;5073995;28;20465;-54
2023/07/14 04:05:25;;;;;;;4.90;3.90;;;;;;;15.50;76.05;98984.66;5072523;28;20334;-52
2023/07/14 04:07:52;;;;;;;6.00;4.43;;;;;;;15.33;76.09;98960.44;5072684;28;20059;-53
2023/07/14 04:10:18;;;;;;;4.60;4.20;;;;;;;15.35;76.51;98971.06;5072744;28;20032;-52
2023/07/14 04:12:49;;;;;;;4.60;3.97;;;;;;;15.21;76.79;98965.41;5075610;28;20107;-49
2023/07/14 04:15:14;;;;;;;5.72;3.90;;;;;;;15.32;77.41;98980.34;5092313;28;20083;-50
2023/07/14 04:17:40;;;;;;;6.03;3.35;;;;;;;15.39;77.18;98982.34;5092651;28;20066;-52
2023/07/14 04:20:06;;;;;;;5.85;3.17;;;;;;;15.45;76.55;98992.44;5092811;28;20039;-54
2023/07/14 04:22:33;;;;;;;4.55;3.58;;;;;;;15.48;76.44;98986.69;5092437;28;20039;-53
2023/07/14 04:24:59;;;;;;;4.47;3.33;;;;;;;15.55;76.45;98993.03;5091436;28;20115;-52
2023/07/14 04:27:26;;;;;;;3.45;3.15;;;;;;;15.59;75.88;98996.25;5082156;28;20052;-64
2023/07/14 04:29:51;;;;;;;5.97;4.13;;;;;;;15.64;76.00;98988.44;5072871;28;20064;-53
2023/07/14 04:32:17;;;;;;;4.47;3.28;;;;;;;15.78;75.46;98993.06;5072081;28;20067;-54
2023/07/14 04:34:43;;;;;;;5.20;3.30;;;;;;;15.89;75.51;98999.94;5072967;28;20064;-54
2023/07/14 04:37:09;;;;;;;5.85;3.40;;;;;;;15.93;75.02;98993.19;5089659;28;20047;-55
2023/07/14 04:39:35;;;;;;;3.83;3.30;;;;;;;15.98;74.73;99008.00;5092996;28;20035;-57
2023/07/14 04:42:00;;;;;;;5.47;3.28;;;;;;;15.91;74.52;98991.69;5092649;28;20376;-53
2023/07/14 04:44:26;;;;;;;5.03;3.35;;;;;;;15.87;74.78;99004.66;5092471;28;20043;-55
2023/07/14 04:46:52;;;;;;;3.75;3.22;;;;;;;15.79;74.97;99004.72;5092622;28;20173;-50
2023/07/14 04:49:18;;;;;;;4.28;3.75;;;;;;;15.59;75.30;98980.06;5092640;28;20040;-55
2023/07/14 04:51:44;;;;;;;6.10;4.32;;;;;;;15.71;75.70;99000.22;5094362;28;20121;-54
2023/07/14 04:54:10;;;;;;;4.57;4.00;;;;;;;15.70;76.13;99003.91;5096407;28;20479;-50
2023/07/14 04:56:37;;;;;;;5.22;4.63;;;;;;;15.58;76.08;98990.00;5095013;28;20035;-52
2023/07/14 04:59:05;;;;;;;5.47;4.50;;;;;;;15.63;76.22;98993.00;5094703;28;20043;-53
2023/07/14 05:01:31;;;;;;;6.38;4.47;;;;;;;15.54;76.80;98998.59;5076782;28;20029;-51
2023/07/14 05:03:57;;;;;;;5.57;4.00;;;;;;;15.48;77.40;98994.78;5076934;28;20480;-63
2023/07/14 05:06:23;;;;;;;5.75;4.13;;;;;;;15.31;77.54;98962.47;5075609;28;20028;-53
2023/07/14 05:08:49;;;;;;;7.65;4.22;;;;;;;15.56;78.05;98992.03;5076279;28;20135;-54
2023/07/14 05:11:15;;;;;;;5.95;3.80;;;;;;;15.71;77.93;99002.09;5074817;28;20124;-53
2023/07/14 05:13:40;;;;;;;7.60;4.40;;;;;;;15.76;77.30;99005.09;5075638;28;20118;-52
2023/07/14 05:16:07;;;;;;;9.43;7.35;;;;;;;15.82;77.82;98995.44;5089508;28;20448;-59
2023/07/14 05:18:32;;;;;;;6.45;4.10;;;;;;;15.87;77.66;98998.44;5096157;28;20127;-52
2023/07/14 05:21:00;;;;;;;4.65;4.15;;;;;;;15.88;77.20;99005.50;5095942;28;20103;-57
2023/07/14 05:23:27;;;;;;;5.63;3.90;;;;;;;15.77;77.11;99004.88;5090427;28;20476;-53
2023/07/14 05:25:53;;;;;;;5.07;4.15;;;;;;;15.69;77.54;99010.34;5075735;28;20076;-52
2023/07/14 05:28:19;;;;;;;5.63;4.28;;;;;;;15.60;77.73;99012.25;5075512;28;20109;-53
2023/07/14 05:30:44;;;;;;;5.22;4.32;;;;;;;15.54;77.79;99012.94;5075362;28;20021;-54
2023/07/14 05:33:12;;;;;;;5.55;4.38;;;;;;;15.52;77.84;99019.53;5075387;28;20032;-52
2023/07/14 05:35:39;;;;;;;6.53;4.40;;;;;;;15.46;78.09;99013.00;5076247;28;20098;-56
2023/07/14 05:38:05;;;;;;;5.50;4.35;;;;;;;15.46;78.15;99013.00;5075105;28;20047;-54
2023/07/14 05:40:31;;;;;;;5.57;4.50;;;;;;;15.56;78.54;99015.50;5075272;28;20082;-54
2023/07/14 05:43:00;;;;;;;6.47;4.07;;;;;;;15.70;78.15;99016.59;5075575;28;20453;-61
2023/07/14 05:45:26;;;;;;;4.78;4.07;;;;;;;15.75;77.67;99011.50;5078688;28;20036;-55
2023/07/14 05:47:51;;;;;;;4.75;3.95;;;;;;;15.76;77.54;98988.88;5092914;28;20406;-53
2023/07/14 05:50:17;;;;;;;5.45;3.65;;;;;;;16.16;77.11;99003.16;5095646;28;20097;-53
2023/07/14 05:52:44;;;;;;;5.28;3.33;;;;;;;16.59;75.80;99008.03;5091460;28;20043;-53
2023/07/14 05:55:11;;;;;;;5.82;3.40;;;;;;;17.17;74.11;99017.44;5074825;28;20049;-57
2023/07/14 05:57:37;;;;;;;5.57;3.10;;;;;;;17.60;72.21;99020.28;5075305;28;20445;-58
2023/07/14 06:00:08;;;;;;;4.18;3.20;;;;;;;17.98;71.24;99021.13;5073923;28;20040;-53
2023/07/14 06:02:34;;;;;;;3.45;2.63;;;;;;;18.35;69.29;99013.81;5092638;28;20437;-55
2023/07/14 06:05:00;;;;;;;2.75;2.55;;;;;;;18.42;67.55;98979.47;5094896;28;20039;-60
2023/07/14 06:07:25;;;;;;;4.43;2.70;;;;;;;18.79;66.49;99006.44;5092737;28;20055;-54
2023/07/14 06:09:51;;;;;;;3.08;2.65;;;;;;;19.01;65.52;99020.78;5094881;28;20036;-52
2023/07/14 06:12:17;;;;;;;3.22;2.85;;;;;;;19.04;64.11;99008.72;5093859;28;20036;-54
2023/07/14 06:14:42;;;;;;;4.40;2.50;;;;;;;19.03;63.44;99018.72;5095068;28;20036;-56
2023/07/14 06:17:08;;;;;;;5.47;3.05;;;;;;;19.03;63.98;99017.88;5094604;28;20029;-55
2023/07/14 06:19:36;;;;;;;4.97;3.30;;;;;;;18.89;63.54;99011.50;5094502;28;20024;-53
2023/07/14 06:22:04;;;;;;;5.35;2.97;;;;;;;18.75;63.81;99014.13;5093024;28;20449;-56
2023/07/14 06:24:29;;;;;;;4.95;3.22;;;;;;;18.55;63.53;99016.69;5094255;28;20043;-55
2023/07/14 06:26:55;;;;;;;3.97;3.42;;;;;;;18.44;64.07;99015.34;5078455;28;20033;-56
2023/07/14 06:29:20;;;;;;;4.80;4.30;;;;;;;18.31;64.87;99018.78;5073838;28;20041;-52
2023/07/14 06:31:46;;;;;;;5.60;3.80;;;;;;;18.15;65.25;99011.75;5075389;28;20033;-55
2023/07/14 06:34:13;;;;;;;5.82;3.47;;;;;;;18.00;65.50;99027.19;5073905;28;20119;-53
2023/07/14 06:36:39;;;;;;;4.40;2.97;;;;;;;17.81;65.90;99029.47;5073153;28;20093;-60
2023/07/14 06:39:04;;;;;;;4.03;3.42;;;;;;;17.77;66.38;99031.72;5073321;28;20463;-57
2023/07/14 06:41:30;;;;;;;3.47;2.95;;;;;;;17.91;65.78;99035.44;5073887;28;20441;-57
2023/07/14 06:43:57;;;;;;;4.75;3.15;;;;;;;18.18;64.62;99048.44;5075342;28;20032;-56
2023/07/14 06:46:23;;;;;;;3.40;3.10;;;;;;;18.48;63.98;99030.16;5075117;28;20127;-55
2023/07/14 06:48:48;;;;;;;5.85;3.13;;;;;;;18.74;62.89;99039.56;5073454;28;20571;-54
2023/07/14 06:51:14;;;;;;;3.15;2.83;;;;;;;18.74;62.32;99019.75;5074175;28;20381;-51
2023/07/14 06:53:40;;;;;;;4.60;2.95;;;;;;;18.56;61.96;99012.09;5074139;28;20059;-56
2023/07/14 06:56:07;;;;;;;3.67;3.00;;;;;;;18.58;62.37;99040.69;5074248;28;20162;-53
2023/07/14 06:58:34;;;;;;;4.22;3.00;;;;;;;18.49;62.93;99050.81;5073452;28;20366;-56
2023/07/14 07:01:00;;;;;;;6.60;3.10;;;;;;;18.42;62.76;99022.81;5073884;28;20043;-57
2023/07/14 07:03:26;;;;;;;5.57;3.10;;;;;;;18.78;62.88;99043.53;5073572;28;20040;-56
2023/07/14 07:05:52;;;;;;;4.53;2.60;;;;;;;19.22;61.10;99038.03;5074243;28;20036;-55
2023/07/14 07:08:18;;;;;;;2.85;1.70;;;;;;;19.60;59.19;99045.75;5088797;28;20044;-53
2023/07/14 07:10:45;;;;;;;2.05;1.80;;;;;;;19.91;58.24;99062.63;5093896;28;20036;-56
2023/07/14 07:13:12;;;;;;;3.05;2.20;;;;;;;20.01;59.06;99056.78;5093491;28;20032;-56
2023/07/14 07:15:38;;;;;;;3.38;2.33;;;;;;;19.92;58.43;99054.25;5092936;28;20024;-54
2023/07/14 07:18:04;;;;;;;5.60;2.10;;;;;;;19.47;58.72;99018.53;5093829;28;20032;-54
2023/07/14 07:20:29;;;;;;;2.78;2.00;;;;;;;19.41;59.74;99062.78;5074459;28;20055;-55
2023/07/14 07:22:55;;;;;;;4.78;2.08;;;;;;;19.10;60.60;99061.34;5071216;28;20452;-61
2023/07/14 07:25:21;;;;;;;3.17;2.38;;;;;;;18.66;62.04;99034.28;5049929;28;20119;-57
2023/07/14 07:27:46;;;;;;;3.25;2.20;;;;;;;18.60;63.17;99062.19;5062775;28;20139;-54
2023/07/14 07:30:12;;;;;;;5.38;2.50;;;;;;;18.43;63.02;99069.72;5052855;28;20033;-58
2023/07/14 07:32:40;;;;;;;5.63;2.75;;;;;;;18.34;63.63;99063.63;5066230;28;20029;-56
2023/07/14 07:35:06;;;;;;;3.35;2.53;;;;;;;18.38;63.71;99073.03;5052256;28;20039;-58
2023/07/14 07:37:32;;;;;;;6.03;2.53;;;;;;;18.53;63.14;99074.81;5053183;28;20346;-55
2023/07/14 07:39:58;;;;;;;3.58;2.50;;;;;;;18.65;62.71;99043.47;5073707;28;20055;-56
2023/07/14 07:42:24;;;;;;;4.43;2.35;;;;;;;19.15;61.54;99067.00;5072344;28;20052;-58
2023/07/14 07:44:50;;;;;;;3.30;2.53;;;;;;;19.43;60.67;99071.56;5073554;28;20028;-58
2023/07/14 07:47:15;;;;;;;3.88;2.20;;;;;;;19.65;59.73;99080.44;5071592;28;20135;-57
2023/07/14 07:49:41;;;;;;;3.15;2.20;;;;;;;19.74;59.16;99072.94;5072407;28;20035;-56
2023/07/14 07:52:07;;;;;;;3.90;2.33;;;;;;;19.72;58.85;99085.91;5085248;28;20024;-57
2023/07/14 07:54:33;;;;;;;4.78;2.28;;;;;;;19.66;59.84;99093.00;5081783;28;20040;-56
2023/07/14 07:56:58;;;;;;;2.67;2.00;;;;;;;19.43;59.24;99063.41;5072373;28;20028;-58
2023/07/14 07:59:24;;;;;;;2.85;2.38;;;;;;;19.44;59.18;99089.53;5072160;28;20029;-56
2023/07/14 08:01:49;;;;;;;2.67;2.00;;;;;;;19.20;60.35;99078.94;5072551;28;20040;-58
2023/07/14 08:04:17;;;;;;;3.17;2.10;;;;;;;19.13;60.14;99085.38;5071853;28;20028;-55
2023/07/14 08:06:43;;;;;;;3.22;2.60;;;;;;;19.00;61.04;99084.22;5081721;28;20040;-56
2023/07/14 08:09:09;;;;;;;2.90;2.00;;;;;;;18.85;61.25;99083.47;5085294;28;20040;-54
2023/07/14 08:11:35;;;;;;;4.00;2.20;;;;;;;18.69;61.70;99093.53;5072723;28;20119;-56
2023/07/14 08:14:03;;;;;;;5.85;2.33;;;;;;;18.55;62.32;99097.16;5072117;28;20034;-54
2023/07/14 08:16:29;;;;;;;3.35;2.05;;;;;;;18.38;62.74;99094.72;5072003;28;20033;-47
2023/07/14 08:18:55;;;;;;;2.08;1.80;;;;;;;18.29;62.74;99095.84;5072109;28;20032;-54
2023/07/14 08:21:20;;;;;;;3.83;1.98;;;;;;;18.16;62.45;99083.00;5072103;28;20369;-51
2023/07/14 08:23:46;;;;;;;5.72;2.28;;;;;;;18.18;63.29;99098.06;5058706;28;20029;-57
2023/07/14 08:26:12;;;;;;;2.15;1.95;;;;;;;18.17;63.52;99109.06;5070903;28;20047;-54
2023/07/14 08:28:38;;;;;;;3.17;1.70;;;;;;;18.11;63.42;99107.97;5058614;28;20071;-50
2023/07/14 08:31:07;;;;;;;3.55;2.42;;;;;;;17.99;64.40;99085.06;5076364;28;20100;-57
2023/07/14 08:33:33;;;;;;;3.53;2.40;;;;;;;18.01;64.07;99113.69;5075634;28;20136;-51
2023/07/14 08:36:02;;;;;;;3.30;2.20;;;;;;;17.98;64.40;99108.63;5071497;28;20052;-50
2023/07/14 08:38:33;;;;;;;4.70;2.10;;;;;;;18.02;63.79;99112.66;5072068;28;20025;-51
2023/07/14 08:41:26;;;;;;;6.60;2.50;;;;;;;18.07;64.18;99117.50;5071070;28;20044;-47
2023/07/14 08:44:26;;;;;;;2.83;1.77;;;;;;;18.06;64.14;99111.25;5071628;28;20033;-52
2023/07/14 08:47:21;;;;;;;3.47;1.70;;;;;;;18.09;64.01;99120.88;5074759;28;20024;-49
2023/07/14 08:49:49;;;;;;;3.55;1.58;;;;;;;17.90;63.53;99111.44;5081815;28;20429;-53
2023/07/14 08:52:37;;;;;;;2.78;1.45;;;;;;;17.96;64.02;99104.41;5076143;28;20036;-53
2023/07/14 08:55:13;;;;;;;3.85;1.50;;;;;;;17.89;64.22;99110.59;5082288;28;20032;-62
2023/07/14 08:57:56;;;;;;;2.22;1.73;;;;;;;17.85;64.26;99113.88;5071981;28;20499;-55
2023/07/14 09:00:28;;;;;;;2.67;1.75;;;;;;;17.71;64.61;99116.38;5071896;28;20635;-55
2023/07/14 09:03:06;;;;;;;4.55;1.70;;;;;;;17.71;64.59;99113.69;5056006;28;20085;-56
2023/07/14 09:05:36;;;;;;;4.63;1.95;;;;;;;17.64;64.52;99121.75;5051125;28;20044;-54
2023/07/14 09:08:03;;;;;;;7.47;2.25;;;;;;;17.53;64.97;99115.97;5070045;28;20045;-59
2023/07/14 09:10:51;;;;;;;3.67;2.05;;;;;;;17.78;64.77;99113.78;5073830;28;20041;-56
2023/07/14 09:13:39;;;;;;;3.15;1.98;;;;;;;18.02;64.42;99114.53;5071544;28;20032;-53
2023/07/14 09:16:08;;;;;;;2.17;1.58;;;;;;;18.27;63.04;99112.31;5051604;28;20075;-53
2023/07/14 09:18:48;;;;;;;1.75;1.63;;;;;;;18.62;61.73;99108.91;5070294;28;20033;-54
2023/07/14 09:21:37;;;;;;;6.65;1.77;;;;;;;19.07;61.27;99109.53;5070889;28;20025;-54
2023/07/14 09:24:11;;;;;;;2.55;2.08;;;;;;;19.21;60.54;99106.91;5059822;28;20047;-57
2023/07/14 09:26:44;;;;;;;2.30;1.50;;;;;;;19.24;59.71;99111.13;5068990;28;20039;-48
2023/07/14 09:29:24;;;;;;;5.43;2.08;;;;;;;19.33;59.94;99121.63;5074792;28;20064;-56
2023/07/14 09:31:56;;;;;;;4.85;1.90;;;;;;;19.33;59.03;99116.19;5089564;28;20619;-56
2023/07/14 09:34:35;;;;;;;3.95;2.20;;;;;;;19.55;59.45;99120.69;5082328;28;20031;-54
2023/07/14 09:37:08;;;;;;;2.92;1.75;;;;;;;19.58;59.20;99118.44;5050912;28;20037;-61
2023/07/14 09:39:40;;;;;;;4.68;1.80;;;;;;;19.87;58.36;99118.34;5055779;28;20120;-60
2023/07/14 09:42:22;;;;;;;3.70;2.05;;;;;;;20.33;57.51;99120.41;5069554;28;20040;-59
2023/07/14 09:44:48;;;;;;;3.45;2.22;;;;;;;20.64;55.98;99116.31;5073651;28;20123;-59
2023/07/14 09:47:15;;;;;;;4.43;2.10;;;;;;;20.89;55.01;99112.16;5085106;28;20055;-62
2023/07/14 09:49:46;;;;;;;2.42;1.92;;;;;;;21.04;53.62;99096.47;5094447;28;20024;-63
2023/07/14 09:52:11;;;;;;;3.08;2.03;;;;;;;21.25;53.27;99105.47;5094876;28;20028;-62
2023/07/14 09:54:57;;;;;;;2.92;1.95;;;;;;;21.36;53.49;99117.59;5091990;28;20107;-62
2023/07/14 09:57:28;;;;;;;2.08;1.80;;;;;;;21.12;53.49;99129.94;5074024;28;20028;-51
2023/07/14 10:00:00;;;;;;;2.97;1.40;;;;;;;20.81;54.91;99128.69;5068090;28;20055;-58
2023/07/14 10:02:29;;;;;;;2.17;1.70;;;;;;;20.50;55.28;99126.34;5053134;28;20025;-54
2023/07/14 10:05:00;;;;;;;3.90;2.00;;;;;;;20.15;56.09;99112.03;5070718;28;20040;-49
2023/07/14 10:07:26;;;;;;;4.78;2.22;;;;;;;20.02;56.75;99129.13;5063602;28;20059;-52
2023/07/14 10:10:09;;;;;;;5.85;1.80;;;;;;;19.90;57.04;99137.81;5061642;28;20115;-48
2023/07/14 10:12:40;;;;;;;9.18;2.00;;;;;;;19.74;57.79;99132.69;5074675;28;20058;-50
2023/07/14 10:15:30;;;;;;;10.02;2.25;;;;;;;19.65;58.50;99137.44;5074794;28;20037;-50
2023/07/14 10:18:03;;;;;;;3.55;1.77;;;;;;;19.43;58.09;99142.13;5073026;28;20057;-49
2023/07/14 10:20:31;;;;;;;4.03;2.08;;;;;;;19.33;58.35;99147.91;5093242;28;20451;-51
2023/07/14 10:23:00;;;;;;;2.85;1.85;;;;;;;19.34;57.84;99157.72;5094646;28;20043;-53
2023/07/14 10:25:28;;;;;;;4.38;1.80;;;;;;;19.10;58.20;99119.13;5089986;28;20032;-49
2023/07/14 10:28:07;;;;;;;6.25;1.98;;;;;;;19.25;58.29;99150.78;5092126;28;20063;-53
2023/07/14 10:30:46;;;;;;;8.10;3.03;;;;;;;19.17;59.00;99160.75;5092405;28;20072;-55
2023/07/14 10:33:26;;;;;;;5.97;2.00;;;;;;;19.16;59.58;99158.22;5094585;28;20028;-51
2023/07/14 10:36:06;;;;;;;3.53;2.17;;;;;;;19.07;59.17;99176.50;5092381;28;20040;-54
2023/07/14 10:39:01;;;;;;;3.25;2.00;;;;;;;19.00;59.59;99168.31;5091276;28;20036;-54
2023/07/14 10:41:28;;;;;;;7.93;2.20;;;;;;;18.82;59.58;99160.59;5062524;28;20051;-56
2023/07/14 10:43:59;;;;;;;2.58;2.22;;;;;;;18.77;59.78;99165.78;5074119;28;20029;-49
2023/07/14 10:46:35;;;;;;;5.38;3.00;;;;;;;18.80;60.01;99177.06;5073577;28;20039;-53
2023/07/14 10:49:20;;;;;;;7.75;2.50;;;;;;;18.82;60.09;99162.50;5072790;28;20028;-50
2023/07/14 10:51:51;;;;;;;7.55;2.47;;;;;;;18.82;60.02;99176.06;5073865;28;20352;-50
2023/07/14 10:54:40;;;;;;;4.75;2.63;;;;;;;18.63;60.10;99143.13;5073169;28;20117;-57
2023/07/14 10:57:13;;;;;;;3.38;2.80;;;;;;;18.80;60.46;99163.50;5073249;28;20063;-59
2023/07/14 10:59:58;;;;;;;6.13;2.63;;;;;;;18.86;60.73;99171.91;5086559;28;20115;-58
2023/07/14 11:02:32;;;;;;;7.68;3.10;;;;;;;18.88;60.53;99178.81;5093826;28;20036;-58
2023/07/14 11:05:10;;;;;;;7.32;2.80;;;;;;;19.06;59.75;99180.25;5093522;28;20040;-57
2023/07/14 11:07:36;;;;;;;7.75;3.03;;;;;;;19.11;59.20;99182.41;5093670;28;20044;-65
2023/07/14 11:10:32;;;;;;;7.25;2.72;;;;;;;19.27;58.99;99178.56;5093316;28;20085;-60
2023/07/14 11:13:14;;;;;;;5.40;2.70;;;;;;;19.54;58.20;99187.75;5070802;28;20106;-51
2023/07/14 11:15:48;;;;;;;2.75;2.55;;;;;;;19.78;57.83;99177.44;5053373;28;20133;-59
2023/07/14 11:18:32;;;;;;;4.70;2.60;;;;;;;19.89;57.09;99178.75;5057871;28;20471;-56
2023/07/14 11:21:23;;;;;;;4.63;2.47;;;;;;;20.12;57.55;99192.06;5071394;28;20037;-59
2023/07/14 11:24:06;;;;;;;4.97;3.00;;;;;;;19.92;57.22;99162.91;5073572;28;20066;-52
2023/07/14 11:27:00;;;;;;;3.10;2.80;;;;;;;20.04;57.22;99190.34;5059689;28;20782;-55
2023/07/14 11:29:30;;;;;;;4.72;2.70;;;;;;;20.02;56.90;99188.91;5072767;28;20039;-52
2023/07/14 11:31:59;;;;;;;3.28;2.70;;;;;;;19.89;57.47;99182.31;5072443;28;20028;-49
2023/07/14 11:34:36;;;;;;;3.45;2.65;;;;;;;19.86;57.43;99190.00;5075591;28;20067;-50
2023/07/14 11:37:29;;;;;;;4.18;2.58;;;;;;;19.87;57.63;99191.69;5090778;28;20028;-53
2023/07/14 11:40:00;;;;;;;5.35;2.58;;;;;;;19.73;57.21;99179.91;5086828;28;20042;-50
2023/07/14 11:42:30;;;;;;;3.88;2.75;;;;;;;19.62;56.84;99184.88;5078763;28;20038;-48
2023/07/14 11:44:58;;;;;;;3.65;2.60;;;;;;;19.65;57.37;99189.03;5072597;28;20082;-56
2023/07/14 11:47:35;;;;;;;9.82;2.95;;;;;;;19.78;58.00;99177.44;5072255;28;20041;-55